createdAt,value
2023-01-29T00:03:17.363Z,99559.19
2023-01-29T00:08:19.473Z,99568.81
2023-01-29T00:13:22.378Z,99557.53
2023-01-29T00:18:25.827Z,99546.66
2023-01-29T00:23:28.110Z,99556.25
2023-01-29T00:28:30.348Z,99548.75
2023-01-29T00:33:32.482Z,99539.53
2023-01-29T00:38:35.269Z,99542.72
2023-01-29T00:43:56.093Z,99529.81
2023-01-29T00:49:00.129Z,99525.06
2023-01-29T00:54:06.873Z,99532.16
2023-01-29T00:59:08.916Z,99523.97
2023-01-29T01:04:12.279Z,99513.22
2023-01-29T01:09:32.728Z,99526.47
2023-01-29T01:14:36.628Z,99518.69
2023-01-29T01:19:38.947Z,99529.06
2023-01-29T01:24:41.179Z,99523.13
2023-01-29T01:29:43.315Z,99517.66
2023-01-29T01:34:45.482Z,99525.38
2023-01-29T01:39:49.171Z,99506.19
2023-01-29T01:44:51.528Z,99516.41
2023-01-29T01:49:55.816Z,99513.50
2023-01-29T01:54:59.886Z,99500.44
2023-01-29T02:00:10.199Z,99494.03
2023-01-29T02:05:39.680Z,99490.03
2023-01-29T02:10:45.563Z,99486.38
2023-01-29T02:15:48.918Z,99480.75
2023-01-29T02:21:25.348Z,99467.88
2023-01-29T02:26:32.375Z,99458.53
2023-01-29T02:31:48.380Z,99453.84
2023-01-29T02:36:58.637Z,99450.56
2023-01-29T02:42:24.706Z,99442.19
2023-01-29T02:47:32.971Z,99432.91
2023-01-29T02:52:54.315Z,99432.38
2023-01-29T02:58:04.104Z,99410.91
2023-01-29T03:03:16.551Z,99409.25
2023-01-29T03:08:37.388Z,99404.97
2023-01-29T03:13:57.789Z,99409.03
2023-01-29T03:19:16.409Z,99403.81
2023-01-29T03:24:43.467Z,99395.00
2023-01-29T03:30:07.111Z,99344.34
2023-01-29T03:35:35.521Z,99357.28
2023-01-29T03:40:50.571Z,99350.13
2023-01-29T03:46:36.694Z,99350.63
2023-01-29T03:51:50.896Z,99343.84
2023-01-29T03:57:15.591Z,99329.78
2023-01-29T04:02:30.699Z,99321.00
2023-01-29T04:07:36.927Z,99314.22
2023-01-29T04:12:56.823Z,99307.16
2023-01-29T04:17:59.646Z,99309.03
2023-01-29T04:23:27.591Z,99307.41
2023-01-29T04:28:46.152Z,99308.47
2023-01-29T04:33:48.360Z,99306.53
2023-01-29T04:39:17.548Z,99296.22
2023-01-29T04:44:28.853Z,99295.38
2023-01-29T04:49:49.376Z,99304.53
2023-01-29T04:55:06.327Z,99297.50
2023-01-29T05:00:34.707Z,99269.34
2023-01-29T05:05:37.047Z,99280.25
2023-01-29T05:10:39.989Z,99272.75
2023-01-29T05:15:50.781Z,99277.56
2023-01-29T05:20:56.839Z,99275.25
2023-01-29T05:25:59.122Z,99284.56
2023-01-29T05:31:01.333Z,99281.63
2023-01-29T05:36:04.131Z,99295.16
2023-01-29T05:41:06.268Z,99268.50
2023-01-29T05:46:08.394Z,99285.34
2023-01-29T05:51:10.494Z,99281.41
2023-01-29T05:56:12.621Z,99289.00
2023-01-29T06:01:23.167Z,99289.38
2023-01-29T06:06:25.269Z,99280.56
2023-01-29T06:11:27.352Z,99283.50
2023-01-29T06:16:30.137Z,99270.81
2023-01-29T06:21:32.361Z,99280.13
2023-01-29T06:26:34.442Z,99270.28
2023-01-29T06:31:39.229Z,99268.53
2023-01-29T06:36:42.977Z,99272.34
2023-01-29T06:41:46.421Z,99274.22
2023-01-29T06:46:48.479Z,99262.03
2023-01-29T06:51:50.553Z,99256.03
2023-01-29T06:56:52.838Z,99239.69
2023-01-29T07:01:54.978Z,99230.03
2023-01-29T07:06:57.148Z,99225.88
2023-01-29T07:11:59.295Z,99241.84
2023-01-29T07:17:01.652Z,99219.47
2023-01-29T07:22:04.077Z,99215.31
2023-01-29T07:27:06.407Z,99214.03
2023-01-29T07:32:08.712Z,99198.38
2023-01-29T07:37:11.583Z,99208.44
2023-01-29T07:42:13.756Z,99190.88
2023-01-29T07:47:17.237Z,99197.53
2023-01-29T07:52:21.943Z,99178.50
2023-01-29T07:57:24.697Z,99179.81
2023-01-29T08:02:26.864Z,99180.00
2023-01-29T08:07:29.085Z,99188.78
2023-01-29T08:12:31.260Z,99177.66
2023-01-29T08:17:33.442Z,99166.59
2023-01-29T08:22:35.598Z,99168.38
2023-01-29T08:27:37.836Z,99159.94
2023-01-29T08:32:39.877Z,99167.66
2023-01-29T08:37:42.046Z,99170.56
2023-01-29T08:42:44.214Z,99159.44
2023-01-29T08:47:47.695Z,99172.88
2023-01-29T08:52:49.998Z,99165.03
2023-01-29T08:57:52.096Z,99157.97
2023-01-29T09:02:54.178Z,99159.97
2023-01-29T09:07:59.875Z,99155.63
2023-01-29T09:13:02.313Z,99154.03
2023-01-29T09:18:05.580Z,99159.75
2023-01-29T09:23:09.601Z,99144.03
2023-01-29T09:28:11.781Z,99133.38
2023-01-29T09:33:14.074Z,99125.16
2023-01-29T09:38:16.236Z,99121.78
2023-01-29T09:43:24.448Z,99121.28
2023-01-29T09:48:31.407Z,99126.19
2023-01-29T09:53:54.955Z,99117.28
2023-01-29T09:59:01.391Z,99095.50
2023-01-29T10:04:45.789Z,99090.84
2023-01-29T10:10:22.850Z,99079.16
2023-01-29T10:15:43.673Z,99069.50
2023-01-29T10:21:13.044Z,99059.69
2023-01-29T10:26:15.238Z,99038.41
2023-01-29T10:31:38.762Z,99030.19
2023-01-29T10:36:43.324Z,99017.72
2023-01-29T10:42:05.732Z,98991.63
2023-01-29T10:47:46.461Z,99005.78
2023-01-29T10:53:18.477Z,99014.31
2023-01-29T10:58:41.962Z,99006.94
2023-01-29T11:03:44.200Z,98986.75
2023-01-29T11:09:11.124Z,98962.25
2023-01-29T11:14:27.147Z,98981.97
2023-01-29T11:19:41.490Z,98963.34
2023-01-29T11:24:44.374Z,98967.06
2023-01-29T11:29:48.359Z,98963.66
2023-01-29T11:35:22.092Z,98944.28
2023-01-29T11:40:24.123Z,98958.31
2023-01-29T11:45:32.413Z,98956.13
2023-01-29T11:50:34.697Z,98953.59
2023-01-29T11:55:49.784Z,98946.38
2023-01-29T12:00:55.439Z,98937.59
2023-01-29T12:06:06.020Z,98901.91
2023-01-29T12:11:23.913Z,98952.84
2023-01-29T12:16:41.100Z,98932.88
2023-01-29T12:21:52.782Z,98941.53
2023-01-29T12:27:14.915Z,98937.72
2023-01-29T12:32:22.510Z,98938.56
2023-01-29T12:37:36.176Z,98934.44
2023-01-29T12:42:42.059Z,98948.69
2023-01-29T12:47:49.294Z,98932.53
2023-01-29T12:52:58.550Z,98942.41
2023-01-29T12:58:04.283Z,98934.81
2023-01-29T13:03:21.394Z,98942.84
2023-01-29T13:08:31.139Z,98929.16
2023-01-29T13:13:37.014Z,98917.31
2023-01-29T13:18:47.963Z,98913.75
2023-01-29T13:23:56.935Z,98904.25
2023-01-29T13:28:59.155Z,98908.84
2023-01-29T13:34:10.174Z,98903.25
2023-01-29T13:39:25.130Z,98908.94
2023-01-29T13:44:37.521Z,98894.97
2023-01-29T13:50:02.773Z,98893.97
2023-01-29T13:55:09.568Z,98897.91
2023-01-29T14:00:43.658Z,98887.75
2023-01-29T14:05:54.755Z,98899.63
2023-01-29T14:11:35.929Z,98890.78
2023-01-29T14:16:38.237Z,98882.84
2023-01-29T14:21:40.792Z,98875.56
2023-01-29T14:26:48.631Z,98876.34
2023-01-29T14:32:00.744Z,98869.59
2023-01-29T14:37:19.482Z,98877.22
2023-01-29T14:42:26.024Z,98875.06
2023-01-29T14:47:28.026Z,98868.06
2023-01-29T14:52:35.901Z,98859.47
2023-01-29T14:57:38.988Z,98850.94
2023-01-29T15:02:44.723Z,98855.31
2023-01-29T15:07:57.093Z,98842.78
2023-01-29T15:13:30.537Z,98862.59
2023-01-29T15:18:42.418Z,98858.78
2023-01-29T15:23:45.598Z,98867.06
2023-01-29T15:29:03.639Z,98879.84
2023-01-29T15:34:07.848Z,98868.53
2023-01-29T15:39:09.863Z,98872.72
2023-01-29T15:44:21.164Z,98843.97
2023-01-29T15:49:32.114Z,98856.94
2023-01-29T15:54:35.699Z,98851.03
2023-01-29T15:59:42.702Z,98848.03
2023-01-29T16:04:46.063Z,98848.13
2023-01-29T16:09:49.304Z,98842.38
2023-01-29T16:14:52.072Z,98853.63
2023-01-29T16:20:02.048Z,98840.91
2023-01-29T16:25:13.456Z,98848.50
2023-01-29T16:30:17.605Z,98845.06
2023-01-29T16:35:20.005Z,98844.59
2023-01-29T16:40:33.922Z,98840.88
2023-01-29T16:45:36.011Z,98837.22
2023-01-29T16:50:53.861Z,98845.19
2023-01-29T16:56:03.921Z,98822.72
2023-01-29T17:01:10.845Z,98811.47
2023-01-29T17:06:23.235Z,98810.66
2023-01-29T17:11:36.812Z,98818.47
2023-01-29T17:17:03.939Z,98803.94
2023-01-29T17:22:08.589Z,98779.72
2023-01-29T17:27:22.740Z,98780.31
2023-01-29T17:32:44.071Z,98796.00
2023-01-29T17:37:49.502Z,98809.75
2023-01-29T17:42:51.564Z,98793.59
2023-01-29T17:47:53.605Z,98791.38
2023-01-29T17:52:55.771Z,98800.28
2023-01-29T17:57:57.859Z,98791.63
2023-01-29T18:03:02.504Z,98783.09
2023-01-29T18:08:04.905Z,98782.69
2023-01-29T18:13:06.940Z,98778.59
2023-01-29T18:18:15.951Z,98780.69
2023-01-29T18:23:18.037Z,98768.59
2023-01-29T18:28:20.186Z,98776.22
2023-01-29T18:33:24.246Z,98770.34
2023-01-29T18:38:26.537Z,98772.13
2023-01-29T18:43:28.713Z,98768.81
2023-01-29T18:48:31.195Z,98765.66
2023-01-29T18:53:33.543Z,98768.81
2023-01-29T18:58:36.923Z,98775.97
2023-01-29T19:03:40.736Z,98766.25
2023-01-29T19:08:44.085Z,98762.56
2023-01-29T19:13:48.031Z,98754.91
2023-01-29T19:18:50.095Z,98751.34
2023-01-29T19:23:52.150Z,98755.03
2023-01-29T19:28:54.411Z,98751.59
2023-01-29T19:33:56.489Z,98740.03
2023-01-29T19:38:58.638Z,98732.91
2023-01-29T19:44:00.746Z,98733.16
2023-01-29T19:49:03.635Z,98729.97
2023-01-29T19:54:05.728Z,98716.69
2023-01-29T19:59:07.803Z,98706.72
2023-01-29T20:04:09.824Z,98714.09
2023-01-29T20:09:12.061Z,98717.38
2023-01-29T20:14:14.150Z,98711.34
2023-01-29T20:19:16.330Z,98698.34
2023-01-29T20:24:18.358Z,98683.66
2023-01-29T20:29:20.389Z,98673.94
2023-01-29T20:34:22.571Z,98682.72
2023-01-29T20:39:24.863Z,98672.81
2023-01-29T20:44:26.996Z,98672.41
2023-01-29T20:49:29.213Z,98659.94
2023-01-29T20:54:33.344Z,98683.09
2023-01-29T20:59:35.658Z,98665.75
2023-01-29T21:04:37.774Z,98673.63
2023-01-29T21:09:39.928Z,98681.00
2023-01-29T21:14:42.093Z,98674.69
2023-01-29T21:19:44.157Z,98634.00
2023-01-29T21:24:46.358Z,98653.53
2023-01-29T21:29:48.698Z,98648.06
2023-01-29T21:34:52.606Z,98652.19
2023-01-29T21:39:54.844Z,98641.63
2023-01-29T21:44:57.023Z,98646.44
2023-01-29T21:49:59.064Z,98642.06
2023-01-29T21:55:01.179Z,98649.88
2023-01-29T22:00:04.301Z,98644.66
2023-01-29T22:05:18.877Z,98625.59
2023-01-29T22:10:22.538Z,98646.88
2023-01-29T22:15:24.717Z,98629.28
2023-01-29T22:20:30.764Z,98622.28
2023-01-29T22:25:33.511Z,98600.31
2023-01-29T22:30:35.669Z,98607.31
2023-01-29T22:35:38.373Z,98585.75
2023-01-29T22:40:40.408Z,98591.75
2023-01-29T22:45:42.533Z,98575.41
2023-01-29T22:50:53.825Z,98562.25
2023-01-29T22:55:56.048Z,98559.94
2023-01-29T23:00:58.207Z,98555.38
2023-01-29T23:06:00.345Z,98545.22
2023-01-29T23:11:14.667Z,98547.56
2023-01-29T23:16:20.153Z,98535.22
2023-01-29T23:21:25.219Z,98539.22
2023-01-29T23:26:47.563Z,98527.66
2023-01-29T23:31:49.830Z,98526.31
2023-01-29T23:36:52.052Z,98515.88
2023-01-29T23:41:55.209Z,98511.50
2023-01-29T23:46:58.386Z,98498.59
2023-01-29T23:52:00.470Z,98500.78
2023-01-29T23:57:02.487Z,98485.84
